Taiobeiras, Brazil
Current Conditions -  °F | °C
As of 4:00 PM on Monday 22 Dec 2014 (Local Time) from SBQV Reporting Station
Broken Clouds Broken Clouds  
Wind Chill: 86°   Ceiling: 2500
Heat Index: 89°   Visibility: 6mi
Dew Point: 68°   Wind: 9mph
Humidity: 55%   Direction: 120°ESE
Pressure: 30.03"   Gusts: NA
Location:  15.81°S, 42.23°W
Report Text: SBQV 221800Z 12008KT 9999 BKN025 30/20 Q1017
Loading
Personal Weather Stations






























Interactive Weather Map New forecast layout! Learn more

10-Day Weather Forecast

Advertisements
Track Severe Weather on mobile